sensor_id;sensor_type;location;lat;lon;timestamp;temperature;humidity
23556;DHT22;11956;53.184;8.578;2023-04-03T00:01:58;1.80;99.90
23556;DHT22;11956;53.184;8.578;2023-04-03T00:04:59;1.80;99.90
23556;DHT22;11956;53.184;8.578;2023-04-03T00:08:00;1.80;99.90
23556;DHT22;11956;53.184;8.578;2023-04-03T00:11:03;1.70;99.90
23556;DHT22;11956;53.184;8.578;2023-04-03T00:14:05;1.70;99.90
23556;DHT22;11956;53.184;8.578;2023-04-03T00:17:06;1.70;99.90
23556;DHT22;11956;53.184;8.578;2023-04-03T00:20:07;1.70;99.90
23556;DHT22;11956;53.184;8.578;2023-04-03T00:23:09;1.60;99.90
23556;DHT22;11956;53.184;8.578;2023-04-03T00:26:10;1.60;99.90
23556;DHT22;11956;53.184;8.578;2023-04-03T00:29:14;1.60;99.90
23556;DHT22;11956;53.184;8.578;2023-04-03T00:32:15;1.60;99.90
23556;DHT22;11956;53.184;8.578;2023-04-03T00:35:17;1.50;99.90
23556;DHT22;11956;53.184;8.578;2023-04-03T00:38:19;1.50;99.90
23556;DHT22;11956;53.184;8.578;2023-04-03T00:41:20;1.40;99.90
23556;DHT22;11956;53.184;8.578;2023-04-03T00:47:30;1.30;99.90
23556;DHT22;11956;53.184;8.578;2023-04-03T00:50:34;1.30;99.90
23556;DHT22;11956;53.184;8.578;2023-04-03T00:53:47;1.20;99.90
23556;DHT22;11956;53.184;8.578;2023-04-03T00:56:52;1.20;99.90
23556;DHT22;11956;53.184;8.578;2023-04-03T00:59:59;1.20;99.90
23556;DHT22;11956;53.184;8.578;2023-04-03T01:03:04;1.10;99.90
23556;DHT22;11956;53.184;8.578;2023-04-03T01:06:05;1.10;99.90
23556;DHT22;11956;53.184;8.578;2023-04-03T01:09:06;1.00;99.90
23556;DHT22;11956;53.184;8.578;2023-04-03T01:12:18;1.00;99.90
23556;DHT22;11956;53.184;8.578;2023-04-03T01:15:24;1.00;99.90
23556;DHT22;11956;53.184;8.578;2023-04-03T01:18:26;1.00;99.90
23556;DHT22;11956;53.184;8.578;2023-04-03T01:22:04;1.00;99.90
23556;DHT22;11956;53.184;8.578;2023-04-03T01:25:15;1.00;99.90
23556;DHT22;11956;53.184;8.578;2023-04-03T01:28:19;0.90;99.90
23556;DHT22;11956;53.184;8.578;2023-04-03T01:34:50;0.90;99.90
23556;DHT22;11956;53.184;8.578;2023-04-03T01:37:51;0.90;99.90
23556;DHT22;11956;53.184;8.578;2023-04-03T01:40:52;0.90;99.90
23556;DHT22;11956;53.184;8.578;2023-04-03T01:43:53;0.90;99.90
23556;DHT22;11956;53.184;8.578;2023-04-03T01:46:54;0.90;99.90
23556;DHT22;11956;53.184;8.578;2023-04-03T01:49:57;0.90;99.90
23556;DHT22;11956;53.184;8.578;2023-04-03T01:52:58;0.80;99.90
23556;DHT22;11956;53.184;8.578;2023-04-03T01:55:59;0.80;99.90
23556;DHT22;11956;53.184;8.578;2023-04-03T01:59:00;0.80;99.90
23556;DHT22;11956;53.184;8.578;2023-04-03T02:02:01;0.80;99.90
23556;DHT22;11956;53.184;8.578;2023-04-03T02:05:02;0.70;99.90
23556;DHT22;11956;53.184;8.578;2023-04-03T02:08:03;0.80;99.90
23556;DHT22;11956;53.184;8.578;2023-04-03T02:11:04;0.80;99.90
23556;DHT22;11956;53.184;8.578;2023-04-03T02:14:05;0.80;99.90
23556;DHT22;11956;53.184;8.578;2023-04-03T02:17:06;0.80;99.90
23556;DHT22;11956;53.184;8.578;2023-04-03T02:20:09;0.80;99.90
23556;DHT22;11956;53.184;8.578;2023-04-03T02:23:10;0.80;99.90
23556;DHT22;11956;53.184;8.578;2023-04-03T02:26:13;0.80;99.90
23556;DHT22;11956;53.184;8.578;2023-04-03T02:29:16;0.80;99.90
23556;DHT22;11956;53.184;8.578;2023-04-03T02:32:17;0.90;99.90
23556;DHT22;11956;53.184;8.578;2023-04-03T02:35:18;0.90;99.90
23556;DHT22;11956;53.184;8.578;2023-04-03T02:38:20;0.90;99.90
23556;DHT22;11956;53.184;8.578;2023-04-03T02:41:21;0.90;99.90
23556;DHT22;11956;53.184;8.578;2023-04-03T02:44:23;0.90;99.90
23556;DHT22;11956;53.184;8.578;2023-04-03T02:47:25;0.80;99.90
23556;DHT22;11956;53.184;8.578;2023-04-03T02:50:25;0.90;99.90
23556;DHT22;11956;53.184;8.578;2023-04-03T02:53:26;0.80;99.90
23556;DHT22;11956;53.184;8.578;2023-04-03T02:56:28;0.80;99.90
23556;DHT22;11956;53.184;8.578;2023-04-03T02:59:29;0.80;99.90
23556;DHT22;11956;53.184;8.578;2023-04-03T03:02:30;0.80;99.90
23556;DHT22;11956;53.184;8.578;2023-04-03T03:05:31;0.80;99.90
23556;DHT22;11956;53.184;8.578;2023-04-03T03:08:33;0.80;99.90
23556;DHT22;11956;53.184;8.578;2023-04-03T03:11:34;0.80;99.90
23556;DHT22;11956;53.184;8.578;2023-04-03T03:14:36;0.70;99.90
23556;DHT22;11956;53.184;8.578;2023-04-03T03:17:37;0.70;99.90
23556;DHT22;11956;53.184;8.578;2023-04-03T03:20:38;0.70;99.90
23556;DHT22;11956;53.184;8.578;2023-04-03T03:23:39;0.60;99.90
23556;DHT22;11956;53.184;8.578;2023-04-03T03:26:40;0.60;99.90
23556;DHT22;11956;53.184;8.578;2023-04-03T03:29:42;0.60;99.90
23556;DHT22;11956;53.184;8.578;2023-04-03T03:32:43;0.60;99.90
23556;DHT22;11956;53.184;8.578;2023-04-03T03:35:44;0.60;99.90
23556;DHT22;11956;53.184;8.578;2023-04-03T03:38:45;0.50;99.90
23556;DHT22;11956;53.184;8.578;2023-04-03T03:41:46;0.50;99.90
23556;DHT22;11956;53.184;8.578;2023-04-03T03:44:48;0.50;99.90
23556;DHT22;11956;53.184;8.578;2023-04-03T03:47:49;0.50;99.90
23556;DHT22;11956;53.184;8.578;2023-04-03T03:50:50;0.50;99.90
23556;DHT22;11956;53.184;8.578;2023-04-03T03:53:53;0.50;99.90
23556;DHT22;11956;53.184;8.578;2023-04-03T03:56:54;0.50;99.90
23556;DHT22;11956;53.184;8.578;2023-04-03T03:59:58;0.40;99.90
23556;DHT22;11956;53.184;8.578;2023-04-03T04:02:59;0.40;99.90
23556;DHT22;11956;53.184;8.578;2023-04-03T04:06:02;0.40;99.90
23556;DHT22;11956;53.184;8.578;2023-04-03T04:09:03;0.30;99.90
23556;DHT22;11956;53.184;8.578;2023-04-03T04:12:05;0.30;99.90
23556;DHT22;11956;53.184;8.578;2023-04-03T04:15:07;0.20;99.90
23556;DHT22;11956;53.184;8.578;2023-04-03T04:18:09;0.20;99.90
23556;DHT22;11956;53.184;8.578;2023-04-03T04:21:11;0.20;99.90
23556;DHT22;11956;53.184;8.578;2023-04-03T04:24:13;0.20;99.90
23556;DHT22;11956;53.184;8.578;2023-04-03T04:27:14;0.20;99.90
23556;DHT22;11956;53.184;8.578;2023-04-03T04:30:16;0.20;99.90
23556;DHT22;11956;53.184;8.578;2023-04-03T04:33:20;0.20;99.90
23556;DHT22;11956;53.184;8.578;2023-04-03T04:36:21;0.10;99.90
23556;DHT22;11956;53.184;8.578;2023-04-03T04:39:23;0.10;99.90
23556;DHT22;11956;53.184;8.578;2023-04-03T04:42:25;0.10;99.90
23556;DHT22;11956;53.184;8.578;2023-04-03T04:45:26;0.00;99.90
23556;DHT22;11956;53.184;8.578;2023-04-03T04:48:28;0.00;99.90
23556;DHT22;11956;53.184;8.578;2023-04-03T04:51:29;-0.10;99.90
23556;DHT22;11956;53.184;8.578;2023-04-03T04:54:31;-0.10;99.90
23556;DHT22;11956;53.184;8.578;2023-04-03T04:57:32;-0.10;99.90
23556;DHT22;11956;53.184;8.578;2023-04-03T05:00:34;0.00;99.90
23556;DHT22;11956;53.184;8.578;2023-04-03T05:03:36;0.00;99.90
23556;DHT22;11956;53.184;8.578;2023-04-03T05:06:37;0.00;99.90
23556;DHT22;11956;53.184;8.578;2023-04-03T05:09:42;0.00;99.90
23556;DHT22;11956;53.184;8.578;2023-04-03T05:12:45;0.10;99.90
23556;DHT22;11956;53.184;8.578;2023-04-03T05:15:46;0.10;99.90
23556;DHT22;11956;53.184;8.578;2023-04-03T05:18:48;0.20;99.90
23556;DHT22;11956;53.184;8.578;2023-04-03T05:21:53;0.20;99.90
23556;DHT22;11956;53.184;8.578;2023-04-03T05:24:54;0.20;99.90
23556;DHT22;11956;53.184;8.578;2023-04-03T05:27:57;0.30;99.90
23556;DHT22;11956;53.184;8.578;2023-04-03T05:30:59;0.30;99.90
23556;DHT22;11956;53.184;8.578;2023-04-03T05:34:06;0.50;99.90
23556;DHT22;11956;53.184;8.578;2023-04-03T05:37:10;0.60;99.90
23556;DHT22;11956;53.184;8.578;2023-04-03T05:40:18;0.90;99.90
23556;DHT22;11956;53.184;8.578;2023-04-03T05:43:23;1.60;99.90
23556;DHT22;11956;53.184;8.578;2023-04-03T05:46:26;2.60;99.90
23556;DHT22;11956;53.184;8.578;2023-04-03T05:49:30;3.80;99.90
23556;DHT22;11956;53.184;8.578;2023-04-03T05:52:43;4.90;99.90
23556;DHT22;11956;53.184;8.578;2023-04-03T05:55:46;5.80;99.90
23556;DHT22;11956;53.184;8.578;2023-04-03T05:58:48;6.60;99.90
23556;DHT22;11956;53.184;8.578;2023-04-03T06:01:49;7.40;99.90
23556;DHT22;11956;53.184;8.578;2023-04-03T06:04:50;7.90;99.90
23556;DHT22;11956;53.184;8.578;2023-04-03T06:07:51;8.60;99.90
23556;DHT22;11956;53.184;8.578;2023-04-03T06:10:52;9.20;99.90
23556;DHT22;11956;53.184;8.578;2023-04-03T06:13:53;9.60;99.90
23556;DHT22;11956;53.184;8.578;2023-04-03T06:16:54;10.00;99.90
23556;DHT22;11956;53.184;8.578;2023-04-03T06:19:55;10.00;99.90
23556;DHT22;11956;53.184;8.578;2023-04-03T06:22:56;10.80;99.90
23556;DHT22;11956;53.184;8.578;2023-04-03T06:25:57;11.10;97.90
23556;DHT22;11956;53.184;8.578;2023-04-03T06:28:58;10.70;97.90
23556;DHT22;11956;53.184;8.578;2023-04-03T06:31:59;10.50;98.90
23556;DHT22;11956;53.184;8.578;2023-04-03T06:35:00;10.40;98.30
23556;DHT22;11956;53.184;8.578;2023-04-03T06:38:01;11.10;97.50
23556;DHT22;11956;53.184;8.578;2023-04-03T06:41:04;12.10;94.80
23556;DHT22;11956;53.184;8.578;2023-04-03T06:44:05;13.10;94.10
23556;DHT22;11956;53.184;8.578;2023-04-03T06:47:06;13.20;92.20
23556;DHT22;11956;53.184;8.578;2023-04-03T06:50:12;12.70;92.10
23556;DHT22;11956;53.184;8.578;2023-04-03T06:53:14;12.70;91.30
23556;DHT22;11956;53.184;8.578;2023-04-03T06:56:16;12.80;92.30
23556;DHT22;11956;53.184;8.578;2023-04-03T06:59:17;13.70;89.60
23556;DHT22;11956;53.184;8.578;2023-04-03T07:02:18;12.70;90.90
23556;DHT22;11956;53.184;8.578;2023-04-03T07:05:21;12.50;91.30
23556;DHT22;11956;53.184;8.578;2023-04-03T07:08:22;13.40;89.40
23556;DHT22;11956;53.184;8.578;2023-04-03T07:11:24;14.90;84.50
23556;DHT22;11956;53.184;8.578;2023-04-03T07:14:24;15.60;80.60
23556;DHT22;11956;53.184;8.578;2023-04-03T07:17:26;14.90;80.70
23556;DHT22;11956;53.184;8.578;2023-04-03T07:20:27;14.90;78.60
23556;DHT22;11956;53.184;8.578;2023-04-03T07:23:28;14.90;78.00
23556;DHT22;11956;53.184;8.578;2023-04-03T07:26:29;13.00;80.60
23556;DHT22;11956;53.184;8.578;2023-04-03T07:29:30;13.80;80.10
23556;DHT22;11956;53.184;8.578;2023-04-03T07:32:31;15.10;75.70
23556;DHT22;11956;53.184;8.578;2023-04-03T07:35:32;16.10;74.20
23556;DHT22;11956;53.184;8.578;2023-04-03T07:38:34;17.60;67.90
23556;DHT22;11956;53.184;8.578;2023-04-03T07:41:35;16.60;69.10
23556;DHT22;11956;53.184;8.578;2023-04-03T07:44:36;15.30;69.90
23556;DHT22;11956;53.184;8.578;2023-04-03T07:47:37;15.70;69.20
23556;DHT22;11956;53.184;8.578;2023-04-03T07:50:40;16.70;67.30
23556;DHT22;11956;53.184;8.578;2023-04-03T07:53:41;16.60;65.70
23556;DHT22;11956;53.184;8.578;2023-04-03T07:56:42;17.20;63.70
23556;DHT22;11956;53.184;8.578;2023-04-03T07:59:43;15.00;62.60
23556;DHT22;11956;53.184;8.578;2023-04-03T08:02:44;15.20;65.20
23556;DHT22;11956;53.184;8.578;2023-04-03T08:05:50;14.00;65.50
23556;DHT22;11956;53.184;8.578;2023-04-03T08:08:51;13.00;68.20
23556;DHT22;11956;53.184;8.578;2023-04-03T08:11:52;13.50;67.90
23556;DHT22;11956;53.184;8.578;2023-04-03T08:14:54;15.30;63.00
23556;DHT22;11956;53.184;8.578;2023-04-03T08:17:55;14.20;66.40
23556;DHT22;11956;53.184;8.578;2023-04-03T08:20:55;15.10;63.70
23556;DHT22;11956;53.184;8.578;2023-04-03T08:23:56;14.10;62.70
23556;DHT22;11956;53.184;8.578;2023-04-03T08:26:57;13.10;66.70
23556;DHT22;11956;53.184;8.578;2023-04-03T08:29:58;13.80;65.40
23556;DHT22;11956;53.184;8.578;2023-04-03T08:33:03;14.80;64.40
23556;DHT22;11956;53.184;8.578;2023-04-03T08:36:16;15.00;64.20
23556;DHT22;11956;53.184;8.578;2023-04-03T08:39:18;15.00;62.80
23556;DHT22;11956;53.184;8.578;2023-04-03T08:42:45;14.70;60.20
23556;DHT22;11956;53.184;8.578;2023-04-03T08:45:52;15.30;61.40
23556;DHT22;11956;53.184;8.578;2023-04-03T08:48:54;18.80;57.90
23556;DHT22;11956;53.184;8.578;2023-04-03T08:52:01;20.70;53.00
23556;DHT22;11956;53.184;8.578;2023-04-03T08:58:26;19.20;50.10
23556;DHT22;11956;53.184;8.578;2023-04-03T09:01:34;17.70;54.10
23556;DHT22;11956;53.184;8.578;2023-04-03T09:04:38;18.90;51.10
23556;DHT22;11956;53.184;8.578;2023-04-03T09:08:03;19.80;49.00
23556;DHT22;11956;53.184;8.578;2023-04-03T09:11:25;19.20;46.20
23556;DHT22;11956;53.184;8.578;2023-04-03T09:18:28;21.90;45.50
23556;DHT22;11956;53.184;8.578;2023-04-03T09:21:37;23.30;41.20
23556;DHT22;11956;53.184;8.578;2023-04-03T09:24:45;20.60;39.80
23556;DHT22;11956;53.184;8.578;2023-04-03T09:27:49;21.00;42.00
23556;DHT22;11956;53.184;8.578;2023-04-03T09:30:51;21.80;41.10
23556;DHT22;11956;53.184;8.578;2023-04-03T09:37:42;22.20;35.20
23556;DHT22;11956;53.184;8.578;2023-04-03T09:40:49;20.20;38.00
23556;DHT22;11956;53.184;8.578;2023-04-03T09:43:53;20.40;37.20
23556;DHT22;11956;53.184;8.578;2023-04-03T09:46:54;19.80;39.40
23556;DHT22;11956;53.184;8.578;2023-04-03T09:53:36;21.80;37.00
23556;DHT22;11956;53.184;8.578;2023-04-03T09:56:49;22.00;34.00
23556;DHT22;11956;53.184;8.578;2023-04-03T09:59:59;21.80;35.20
23556;DHT22;11956;53.184;8.578;2023-04-03T10:03:02;20.60;36.60
23556;DHT22;11956;53.184;8.578;2023-04-03T10:06:04;21.70;34.60
23556;DHT22;11956;53.184;8.578;2023-04-03T10:09:27;18.20;36.40
23556;DHT22;11956;53.184;8.578;2023-04-03T10:12:30;15.50;42.20
23556;DHT22;11956;53.184;8.578;2023-04-03T10:15:39;15.30;41.90
23556;DHT22;11956;53.184;8.578;2023-04-03T10:18:52;16.80;42.20
23556;DHT22;11956;53.184;8.578;2023-04-03T10:43:27;18.00;41.00
23556;DHT22;11956;53.184;8.578;2023-04-03T10:46:47;15.80;42.80
23556;DHT22;11956;53.184;8.578;2023-04-03T10:50:00;15.70;43.30
23556;DHT22;11956;53.184;8.578;2023-04-03T10:54:20;15.20;43.30
23556;DHT22;11956;53.184;8.578;2023-04-03T10:57:05;13.10;47.30
23556;DHT22;11956;53.184;8.578;2023-04-03T11:00:18;11.70;49.20
23556;DHT22;11956;53.184;8.578;2023-04-03T11:03:30;10.50;52.10
23556;DHT22;11956;53.184;8.578;2023-04-03T11:06:45;10.00;53.30
23556;DHT22;11956;53.184;8.578;2023-04-03T11:09:54;9.70;54.50
23556;DHT22;11956;53.184;8.578;2023-04-03T11:13:22;9.30;55.10
23556;DHT22;11956;53.184;8.578;2023-04-03T11:16:30;9.10;56.00
23556;DHT22;11956;53.184;8.578;2023-04-03T11:19:41;8.80;57.40
23556;DHT22;11956;53.184;8.578;2023-04-03T11:23:23;8.80;57.70
23556;DHT22;11956;53.184;8.578;2023-04-03T11:26:29;8.70;58.10
23556;DHT22;11956;53.184;8.578;2023-04-03T11:29:36;8.90;59.00
23556;DHT22;11956;53.184;8.578;2023-04-03T11:32:53;9.20;60.40
23556;DHT22;11956;53.184;8.578;2023-04-03T11:36:13;9.30;59.20
23556;DHT22;11956;53.184;8.578;2023-04-03T11:39:33;9.30;59.10
23556;DHT22;11956;53.184;8.578;2023-04-03T11:42:38;9.30;59.50
23556;DHT22;11956;53.184;8.578;2023-04-03T11:46:02;9.40;59.00
23556;DHT22;11956;53.184;8.578;2023-04-03T11:49:03;9.40;58.70
23556;DHT22;11956;53.184;8.578;2023-04-03T11:52:10;9.30;60.00
23556;DHT22;11956;53.184;8.578;2023-04-03T11:58:24;9.30;60.20
23556;DHT22;11956;53.184;8.578;2023-04-03T12:01:44;9.20;59.60
23556;DHT22;11956;53.184;8.578;2023-04-03T12:05:27;9.20;61.70
23556;DHT22;11956;53.184;8.578;2023-04-03T12:11:35;9.70;62.30
23556;DHT22;11956;53.184;8.578;2023-04-03T12:14:37;9.90;60.50
23556;DHT22;11956;53.184;8.578;2023-04-03T12:17:38;10.00;61.70
23556;DHT22;11956;53.184;8.578;2023-04-03T12:20:52;10.10;60.10
23556;DHT22;11956;53.184;8.578;2023-04-03T12:27:28;9.40;60.70
23556;DHT22;11956;53.184;8.578;2023-04-03T12:30:35;9.20;62.30
23556;DHT22;11956;53.184;8.578;2023-04-03T12:47:35;10.20;60.40
23556;DHT22;11956;53.184;8.578;2023-04-03T12:50:40;10.40;60.00
23556;DHT22;11956;53.184;8.578;2023-04-03T12:53:43;9.60;60.60
23556;DHT22;11956;53.184;8.578;2023-04-03T12:56:45;9.70;62.00
23556;DHT22;11956;53.184;8.578;2023-04-03T12:59:47;9.50;61.10
23556;DHT22;11956;53.184;8.578;2023-04-03T13:02:49;9.40;61.10
23556;DHT22;11956;53.184;8.578;2023-04-03T13:05:50;9.30;61.30
23556;DHT22;11956;53.184;8.578;2023-04-03T13:08:56;9.50;61.70
23556;DHT22;11956;53.184;8.578;2023-04-03T13:12:11;9.50;63.40
23556;DHT22;11956;53.184;8.578;2023-04-03T13:15:16;9.80;63.30
23556;DHT22;11956;53.184;8.578;2023-04-03T13:18:32;9.90;63.30
23556;DHT22;11956;53.184;8.578;2023-04-03T13:21:35;10.00;63.70
23556;DHT22;11956;53.184;8.578;2023-04-03T13:24:37;10.10;62.90
23556;DHT22;11956;53.184;8.578;2023-04-03T13:27:39;9.90;61.70
23556;DHT22;11956;53.184;8.578;2023-04-03T13:31:24;9.80;63.90
23556;DHT22;11956;53.184;8.578;2023-04-03T13:34:29;9.80;62.50
23556;DHT22;11956;53.184;8.578;2023-04-03T13:37:58;9.80;63.00
23556;DHT22;11956;53.184;8.578;2023-04-03T13:41:21;9.50;62.20
23556;DHT22;11956;53.184;8.578;2023-04-03T13:44:34;9.70;63.30
23556;DHT22;11956;53.184;8.578;2023-04-03T13:47:41;9.70;61.90
23556;DHT22;11956;53.184;8.578;2023-04-03T13:54:20;9.60;62.20
23556;DHT22;11956;53.184;8.578;2023-04-03T13:57:49;9.50;61.50
23556;DHT22;11956;53.184;8.578;2023-04-03T14:04:20;9.20;63.20
23556;DHT22;11956;53.184;8.578;2023-04-03T14:07:23;9.40;63.90
23556;DHT22;11956;53.184;8.578;2023-04-03T14:10:24;9.50;63.70
23556;DHT22;11956;53.184;8.578;2023-04-03T14:13:25;9.60;63.90
23556;DHT22;11956;53.184;8.578;2023-04-03T14:16:30;9.60;64.30
23556;DHT22;11956;53.184;8.578;2023-04-03T14:19:34;9.70;66.00
23556;DHT22;11956;53.184;8.578;2023-04-03T14:22:36;9.70;62.50
23556;DHT22;11956;53.184;8.578;2023-04-03T14:25:38;9.60;62.20
23556;DHT22;11956;53.184;8.578;2023-04-03T14:28:39;9.70;64.40
23556;DHT22;11956;53.184;8.578;2023-04-03T14:31:43;9.80;64.50
23556;DHT22;11956;53.184;8.578;2023-04-03T14:34:46;9.40;66.40
23556;DHT22;11956;53.184;8.578;2023-04-03T14:37:49;9.40;66.80
23556;DHT22;11956;53.184;8.578;2023-04-03T14:40:51;9.40;66.60
23556;DHT22;11956;53.184;8.578;2023-04-03T14:43:53;9.40;66.50
23556;DHT22;11956;53.184;8.578;2023-04-03T14:46:54;9.20;67.20
23556;DHT22;11956;53.184;8.578;2023-04-03T14:49:57;9.20;68.30
23556;DHT22;11956;53.184;8.578;2023-04-03T14:53:00;9.10;65.70
23556;DHT22;11956;53.184;8.578;2023-04-03T14:56:01;9.00;65.80
23556;DHT22;11956;53.184;8.578;2023-04-03T14:59:02;9.30;66.70
23556;DHT22;11956;53.184;8.578;2023-04-03T15:02:18;9.40;65.50
23556;DHT22;11956;53.184;8.578;2023-04-03T15:05:25;9.40;66.00
23556;DHT22;11956;53.184;8.578;2023-04-03T15:08:27;9.50;66.40
23556;DHT22;11956;53.184;8.578;2023-04-03T15:11:31;9.60;66.00
23556;DHT22;11956;53.184;8.578;2023-04-03T15:14:32;9.60;66.70
23556;DHT22;11956;53.184;8.578;2023-04-03T15:17:33;9.60;66.60
23556;DHT22;11956;53.184;8.578;2023-04-03T15:20:35;9.40;67.40
23556;DHT22;11956;53.184;8.578;2023-04-03T15:23:36;9.20;68.30
23556;DHT22;11956;53.184;8.578;2023-04-03T15:26:37;9.10;68.60
23556;DHT22;11956;53.184;8.578;2023-04-03T15:29:39;9.10;68.50
23556;DHT22;11956;53.184;8.578;2023-04-03T15:32:41;9.10;67.60
23556;DHT22;11956;53.184;8.578;2023-04-03T15:35:42;9.10;68.30
23556;DHT22;11956;53.184;8.578;2023-04-03T15:38:43;8.80;69.50
23556;DHT22;11956;53.184;8.578;2023-04-03T15:41:44;8.80;69.90
23556;DHT22;11956;53.184;8.578;2023-04-03T15:44:45;9.00;69.70
23556;DHT22;11956;53.184;8.578;2023-04-03T15:47:46;9.20;70.40
23556;DHT22;11956;53.184;8.578;2023-04-03T15:50:47;9.20;69.70
23556;DHT22;11956;53.184;8.578;2023-04-03T15:53:48;9.10;71.00
23556;DHT22;11956;53.184;8.578;2023-04-03T15:56:49;9.10;72.60
23556;DHT22;11956;53.184;8.578;2023-04-03T15:59:50;9.00;72.70
23556;DHT22;11956;53.184;8.578;2023-04-03T16:02:54;8.90;73.00
23556;DHT22;11956;53.184;8.578;2023-04-03T16:05:57;8.80;73.40
23556;DHT22;11956;53.184;8.578;2023-04-03T16:08:58;8.70;74.10
23556;DHT22;11956;53.184;8.578;2023-04-03T16:11:59;8.70;74.40
23556;DHT22;11956;53.184;8.578;2023-04-03T16:15:01;8.60;75.00
23556;DHT22;11956;53.184;8.578;2023-04-03T16:18:03;8.60;74.20
23556;DHT22;11956;53.184;8.578;2023-04-03T16:21:06;8.60;73.10
23556;DHT22;11956;53.184;8.578;2023-04-03T16:24:08;8.60;73.60
23556;DHT22;11956;53.184;8.578;2023-04-03T16:27:09;8.50;73.40
23556;DHT22;11956;53.184;8.578;2023-04-03T16:30:11;8.50;73.90
23556;DHT22;11956;53.184;8.578;2023-04-03T16:33:12;8.50;74.40
23556;DHT22;11956;53.184;8.578;2023-04-03T16:36:13;8.50;74.40
23556;DHT22;11956;53.184;8.578;2023-04-03T16:39:14;8.50;75.20
23556;DHT22;11956;53.184;8.578;2023-04-03T16:42:15;8.50;73.80
23556;DHT22;11956;53.184;8.578;2023-04-03T16:45:16;8.40;71.80
23556;DHT22;11956;53.184;8.578;2023-04-03T16:48:17;8.40;72.70
23556;DHT22;11956;53.184;8.578;2023-04-03T16:51:18;8.40;73.00
23556;DHT22;11956;53.184;8.578;2023-04-03T16:54:19;8.30;74.10
23556;DHT22;11956;53.184;8.578;2023-04-03T16:57:20;8.30;73.80
23556;DHT22;11956;53.184;8.578;2023-04-03T17:00:22;8.10;75.70
23556;DHT22;11956;53.184;8.578;2023-04-03T17:03:23;8.10;76.70
23556;DHT22;11956;53.184;8.578;2023-04-03T17:06:26;8.10;77.00
23556;DHT22;11956;53.184;8.578;2023-04-03T17:09:26;8.00;78.00
23556;DHT22;11956;53.184;8.578;2023-04-03T17:12:27;8.00;78.70
23556;DHT22;11956;53.184;8.578;2023-04-03T17:15:28;7.90;79.80
23556;DHT22;11956;53.184;8.578;2023-04-03T17:18:29;7.80;80.60
23556;DHT22;11956;53.184;8.578;2023-04-03T17:21:32;7.80;79.80
23556;DHT22;11956;53.184;8.578;2023-04-03T17:24:34;7.80;80.30
23556;DHT22;11956;53.184;8.578;2023-04-03T17:27:35;7.80;80.80
23556;DHT22;11956;53.184;8.578;2023-04-03T17:30:36;7.80;80.50
23556;DHT22;11956;53.184;8.578;2023-04-03T17:33:37;7.70;80.60
23556;DHT22;11956;53.184;8.578;2023-04-03T17:36:39;7.60;81.00
23556;DHT22;11956;53.184;8.578;2023-04-03T17:39:40;7.60;81.30
23556;DHT22;11956;53.184;8.578;2023-04-03T17:42:41;7.60;82.70
23556;DHT22;11956;53.184;8.578;2023-04-03T17:45:42;7.50;82.40
23556;DHT22;11956;53.184;8.578;2023-04-03T17:48:43;7.50;83.50
23556;DHT22;11956;53.184;8.578;2023-04-03T17:51:44;7.40;83.90
23556;DHT22;11956;53.184;8.578;2023-04-03T17:54:45;7.30;84.60
23556;DHT22;11956;53.184;8.578;2023-04-03T17:57:46;7.30;85.50
23556;DHT22;11956;53.184;8.578;2023-04-03T18:00:47;7.20;86.10
23556;DHT22;11956;53.184;8.578;2023-04-03T18:03:51;7.10;87.20
23556;DHT22;11956;53.184;8.578;2023-04-03T18:06:54;7.10;87.90
23556;DHT22;11956;53.184;8.578;2023-04-03T18:09:56;7.00;88.80
23556;DHT22;11956;53.184;8.578;2023-04-03T18:12:57;6.90;89.60
23556;DHT22;11956;53.184;8.578;2023-04-03T18:15:58;6.80;90.30
23556;DHT22;11956;53.184;8.578;2023-04-03T18:18:59;6.60;90.60
23556;DHT22;11956;53.184;8.578;2023-04-03T18:22:03;6.50;91.00
23556;DHT22;11956;53.184;8.578;2023-04-03T18:25:09;6.60;91.30
23556;DHT22;11956;53.184;8.578;2023-04-03T18:28:11;6.50;91.60
23556;DHT22;11956;53.184;8.578;2023-04-03T18:31:14;6.40;92.10
23556;DHT22;11956;53.184;8.578;2023-04-03T18:34:16;6.30;92.40
23556;DHT22;11956;53.184;8.578;2023-04-03T18:37:17;6.30;93.00
23556;DHT22;11956;53.184;8.578;2023-04-03T18:40:18;6.20;94.00
23556;DHT22;11956;53.184;8.578;2023-04-03T18:43:19;6.10;94.10
23556;DHT22;11956;53.184;8.578;2023-04-03T18:46:20;6.00;94.40
23556;DHT22;11956;53.184;8.578;2023-04-03T18:49:21;6.00;95.90
23556;DHT22;11956;53.184;8.578;2023-04-03T18:52:22;5.90;96.00
23556;DHT22;11956;53.184;8.578;2023-04-03T18:55:24;5.90;95.50
23556;DHT22;11956;53.184;8.578;2023-04-03T18:58:26;5.80;95.40
23556;DHT22;11956;53.184;8.578;2023-04-03T19:01:27;5.80;95.60
23556;DHT22;11956;53.184;8.578;2023-04-03T19:04:28;5.70;95.70
23556;DHT22;11956;53.184;8.578;2023-04-03T19:07:29;5.70;95.80
23556;DHT22;11956;53.184;8.578;2023-04-03T19:10:30;5.60;95.90
23556;DHT22;11956;53.184;8.578;2023-04-03T19:13:31;5.60;96.60
23556;DHT22;11956;53.184;8.578;2023-04-03T19:16:33;5.50;96.40
23556;DHT22;11956;53.184;8.578;2023-04-03T19:19:34;5.50;97.20
23556;DHT22;11956;53.184;8.578;2023-04-03T19:22:35;5.40;97.00
23556;DHT22;11956;53.184;8.578;2023-04-03T19:25:36;5.40;97.30
23556;DHT22;11956;53.184;8.578;2023-04-03T19:28:38;5.30;97.40
23556;DHT22;11956;53.184;8.578;2023-04-03T19:31:41;5.20;97.70
23556;DHT22;11956;53.184;8.578;2023-04-03T19:34:43;5.10;98.00
23556;DHT22;11956;53.184;8.578;2023-04-03T19:37:44;5.10;98.20
23556;DHT22;11956;53.184;8.578;2023-04-03T19:40:50;5.10;98.50
23556;DHT22;11956;53.184;8.578;2023-04-03T19:43:52;5.00;98.80
23556;DHT22;11956;53.184;8.578;2023-04-03T19:46:55;5.00;99.00
23556;DHT22;11956;53.184;8.578;2023-04-03T19:49:55;5.00;98.70
23556;DHT22;11956;53.184;8.578;2023-04-03T19:52:56;5.00;98.60
23556;DHT22;11956;53.184;8.578;2023-04-03T19:55:57;4.90;98.80
23556;DHT22;11956;53.184;8.578;2023-04-03T19:58:58;4.90;98.70
23556;DHT22;11956;53.184;8.578;2023-04-03T20:01:59;4.80;98.60
23556;DHT22;11956;53.184;8.578;2023-04-03T20:05:00;4.80;98.50
23556;DHT22;11956;53.184;8.578;2023-04-03T20:08:01;4.80;98.50
23556;DHT22;11956;53.184;8.578;2023-04-03T20:11:02;4.80;98.40
23556;DHT22;11956;53.184;8.578;2023-04-03T20:14:04;4.80;98.70
23556;DHT22;11956;53.184;8.578;2023-04-03T20:17:06;4.80;98.60
23556;DHT22;11956;53.184;8.578;2023-04-03T20:20:08;4.70;98.50
23556;DHT22;11956;53.184;8.578;2023-04-03T20:23:11;4.70;98.60
23556;DHT22;11956;53.184;8.578;2023-04-03T20:26:19;4.70;98.40
23556;DHT22;11956;53.184;8.578;2023-04-03T20:29:23;4.70;98.40
23556;DHT22;11956;53.184;8.578;2023-04-03T20:32:25;4.70;98.50
23556;DHT22;11956;53.184;8.578;2023-04-03T20:35:26;4.60;98.50
23556;DHT22;11956;53.184;8.578;2023-04-03T20:38:27;4.60;98.60
23556;DHT22;11956;53.184;8.578;2023-04-03T20:41:29;4.60;98.60
23556;DHT22;11956;53.184;8.578;2023-04-03T20:44:31;4.50;98.90
23556;DHT22;11956;53.184;8.578;2023-04-03T20:47:32;4.40;99.30
23556;DHT22;11956;53.184;8.578;2023-04-03T20:50:33;4.40;99.50